Kinoura — 3FHE5 — position and weather

sailwx.info

Track history (hours):
 
Tides and Currents Weather Stations Pressure Air Temp Water Temp Dewpoint Dewpoint Depression Visibility Wind Speed Wind Dir Waves Ship Positions

Kinoura

Last reported at 2017-Oct-31 16:24 UTC. Time now 2017-Nov-21 02:25 UTC.
Position N 31°06' E 122°25'.
Warning: this ship's position is 20 days out of date.

Length 227 m; draft 7.2 m.

Type: Cargo ship. MMSI: 373041000.

Date/timePositionNaut miles runAvg speedWind from/ knotsBaromVisibWave heightAir tempDewpointWater temp
2017-Oct-31 16:24N 31°06' E 122°25'513.6
2017-Oct-31 16:00N 31°06' E 122°19'713.2
2017-Oct-31 15:28N 31°10' E 122°12'612.8
2017-Oct-31 15:00N 31°13' E 122°07'811.6
2017-Oct-31 14:21N 31°15' E 121°58'411.9
2017-Oct-31 13:59N 31°16' E 121°53'511.1
2017-Oct-31 13:30N 31°18' E 121°47'510.0
2017-Oct-31 13:00N 31°20' E 121°42'3 6.1
2017-Oct-31 12:30N 31°21' E 121°39'5 9.7
2017-Oct-31 12:00N 31°24' E 121°34'4 8.5
2017-Oct-31 11:30N 31°26' E 121°30'2 4.5
2017-Oct-31 11:00N 31°27' E 121°28'3 6.1
2017-Oct-31 10:30N 31°30' E 121°25'510.4
2017-Oct-31 10:00N 31°33' E 121°20'510.1
2017-Oct-31 09:30N 31°36' E 121°17'611.4
2017-Oct-31 09:00N 31°40' E 121°12'713.2
2017-Oct-31 08:30N 31°45' E 121°06'3011.7
2017-Oct-31 05:54N 32°00' E 120°35'713.6
2017-Oct-31 05:25N 32°02' E 120°27'  
2017-Oct-27 18:55N 32°02' E 120°26'4 8.7
2017-Oct-27 18:30N 32°02' E 120°30'10 9.2
2017-Oct-27 17:22N 32°00' E 120°42'2 6.4
2017-Oct-27 16:59N 32°01' E 120°45'6 8.2
2017-Oct-27 16:19N 31°58' E 120°51'310.4
2017-Oct-27 16:00N 31°55' E 120°53'510.2
2017-Oct-27 15:29N 31°50' E 120°54'5 9.1
2017-Oct-27 14:53N 31°47' E 120°59'4 9.9
2017-Oct-27 14:30N 31°46' E 121°03'510.1
2017-Oct-27 14:00N 31°43' E 121°08'5 9.8
2017-Oct-27 13:30N 31°40' E 121°13'5 9.6
2017-Oct-27 13:00N 31°37' E 121°17'510.2
2017-Oct-27 12:30N 31°33' E 121°20'5 9.7
2017-Oct-27 12:00N 31°30' E 121°25'510.1
2017-Oct-27 11:30N 31°26' E 121°29'4 8.0
2017-Oct-27 11:00N 31°24' E 121°33'5 9.3
2017-Oct-27 10:30N 31°22' E 121°38'510.5
2017-Oct-27 10:00N 31°19' E 121°43'510.7
2017-Oct-27 09:30N 31°17' E 121°49'5 9.9
2017-Oct-27 09:00N 31°16' E 121°54'611.0
2017-Oct-27 08:27N 31°15' E 122°02'13 9.5
2017-Oct-27 07:03N 31°08' E 122°15'111.6
2017-Oct-27 06:58N 31°07' E 122°16'4 8.4
2017-Oct-27 06:29N 31°06' E 122°21'3 5.8
2017-Oct-27 06:00N 31°06' E 122°24'12 1.1
2017-Oct-26 19:27N 31°08' E 122°38'1 1.8
2017-Oct-26 18:48N 31°07' E 122°37'2 6.9
2017-Oct-26 18:28N 31°07' E 122°40'14 9.7
2017-Oct-26 17:01N 30°58' E 122°53'012.0
2017-Oct-26 16:59N 30°58' E 122°53'  
2017-Oct-22 11:48N 22°48' E 119°55'411.2
2017-Oct-22 11:29N 22°44' E 119°55'  
Track history (hours):
 
Tides and Currents Weather Stations Pressure Air Temp Water Temp Dewpoint Dewpoint Depression Visibility Wind Speed Wind Dir Waves Ship Positions

Kinoura

Last reported at 2017-Oct-31 16:24 UTC. Time now 2017-Nov-21 02:25 UTC.
Position N 31°06' E 122°25'.
Warning: this ship's position is 20 days out of date.

Length 227 m; draft 7.2 m.

Type: Cargo ship. MMSI: 373041000.

Date/timePositionNaut miles runAvg speedWind from/ knotsBaromVisibWave heightAir tempDewpointWater temp
2017-Oct-31 16:24N 31°06' E 122°25'513.6
2017-Oct-31 16:00N 31°06' E 122°19'713.2
2017-Oct-31 15:28N 31°10' E 122°12'612.8
2017-Oct-31 15:00N 31°13' E 122°07'811.6
2017-Oct-31 14:21N 31°15' E 121°58'411.9
2017-Oct-31 13:59N 31°16' E 121°53'511.1
2017-Oct-31 13:30N 31°18' E 121°47'510.0
2017-Oct-31 13:00N 31°20' E 121°42'3 6.1
2017-Oct-31 12:30N 31°21' E 121°39'5 9.7
2017-Oct-31 12:00N 31°24' E 121°34'4 8.5
2017-Oct-31 11:30N 31°26' E 121°30'2 4.5
2017-Oct-31 11:00N 31°27' E 121°28'3 6.1
2017-Oct-31 10:30N 31°30' E 121°25'510.4
2017-Oct-31 10:00N 31°33' E 121°20'510.1
2017-Oct-31 09:30N 31°36' E 121°17'611.4
2017-Oct-31 09:00N 31°40' E 121°12'713.2
2017-Oct-31 08:30N 31°45' E 121°06'3011.7
2017-Oct-31 05:54N 32°00' E 120°35'713.6
2017-Oct-31 05:25N 32°02' E 120°27'  
2017-Oct-27 18:55N 32°02' E 120°26'4 8.7
2017-Oct-27 18:30N 32°02' E 120°30'10 9.2
2017-Oct-27 17:22N 32°00' E 120°42'2 6.4
2017-Oct-27 16:59N 32°01' E 120°45'6 8.2
2017-Oct-27 16:19N 31°58' E 120°51'310.4
2017-Oct-27 16:00N 31°55' E 120°53'510.2
2017-Oct-27 15:29N 31°50' E 120°54'5 9.1
2017-Oct-27 14:53N 31°47' E 120°59'4 9.9
2017-Oct-27 14:30N 31°46' E 121°03'510.1
2017-Oct-27 14:00N 31°43' E 121°08'5 9.8
2017-Oct-27 13:30N 31°40' E 121°13'5 9.6
2017-Oct-27 13:00N 31°37' E 121°17'510.2
2017-Oct-27 12:30N 31°33' E 121°20'5 9.7
2017-Oct-27 12:00N 31°30' E 121°25'510.1
2017-Oct-27 11:30N 31°26' E 121°29'4 8.0
2017-Oct-27 11:00N 31°24' E 121°33'5 9.3
2017-Oct-27 10:30N 31°22' E 121°38'510.5
2017-Oct-27 10:00N 31°19' E 121°43'510.7
2017-Oct-27 09:30N 31°17' E 121°49'5 9.9
2017-Oct-27 09:00N 31°16' E 121°54'611.0
2017-Oct-27 08:27N 31°15' E 122°02'13 9.5
2017-Oct-27 07:03N 31°08' E 122°15'111.6
2017-Oct-27 06:58N 31°07' E 122°16'4 8.4
2017-Oct-27 06:29N 31°06' E 122°21'3 5.8
2017-Oct-27 06:00N 31°06' E 122°24'12 1.1
2017-Oct-26 19:27N 31°08' E 122°38'1 1.8
2017-Oct-26 18:48N 31°07' E 122°37'2 6.9
2017-Oct-26 18:28N 31°07' E 122°40'14 9.7
2017-Oct-26 17:01N 30°58' E 122°53'012.0
2017-Oct-26 16:59N 30°58' E 122°53'  
2017-Oct-22 11:48N 22°48' E 119°55'411.2
2017-Oct-22 11:29N 22°44' E 119°55'  

Dump ship's entire track history